sensor_id;sensor_type;location;lat;lon;timestamp;temperature;humidity
7530;DHT22;3806;52.270;10.544;2023-06-10T00:01:19;18.80;64.50
7530;DHT22;3806;52.270;10.544;2023-06-10T00:03:45;18.60;64.70
7530;DHT22;3806;52.270;10.544;2023-06-10T00:06:10;18.40;65.90
7530;DHT22;3806;52.270;10.544;2023-06-10T00:08:36;18.50;67.20
7530;DHT22;3806;52.270;10.544;2023-06-10T00:11:02;18.40;68.30
7530;DHT22;3806;52.270;10.544;2023-06-10T00:13:28;18.30;69.90
7530;DHT22;3806;52.270;10.544;2023-06-10T00:15:53;18.40;70.40
7530;DHT22;3806;52.270;10.544;2023-06-10T00:18:19;18.30;71.80
7530;DHT22;3806;52.270;10.544;2023-06-10T00:20:47;18.30;72.00
7530;DHT22;3806;52.270;10.544;2023-06-10T00:23:14;18.20;73.00
7530;DHT22;3806;52.270;10.544;2023-06-10T00:25:39;18.10;74.00
7530;DHT22;3806;52.270;10.544;2023-06-10T00:28:05;18.10;75.30
7530;DHT22;3806;52.270;10.544;2023-06-10T00:30:30;18.00;76.40
7530;DHT22;3806;52.270;10.544;2023-06-10T00:32:56;18.00;77.50
7530;DHT22;3806;52.270;10.544;2023-06-10T00:35:21;17.90;78.60
7530;DHT22;3806;52.270;10.544;2023-06-10T00:37:47;17.90;79.80
7530;DHT22;3806;52.270;10.544;2023-06-10T00:40:13;17.80;80.90
7530;DHT22;3806;52.270;10.544;2023-06-10T00:42:38;17.80;82.00
7530;DHT22;3806;52.270;10.544;2023-06-10T00:45:05;17.90;83.20
7530;DHT22;3806;52.270;10.544;2023-06-10T00:47:31;17.90;84.50
7530;DHT22;3806;52.270;10.544;2023-06-10T00:49:56;17.80;85.90
7530;DHT22;3806;52.270;10.544;2023-06-10T00:52:22;17.80;87.40
7530;DHT22;3806;52.270;10.544;2023-06-10T00:54:50;17.80;88.70
7530;DHT22;3806;52.270;10.544;2023-06-10T00:57:16;17.70;89.80
7530;DHT22;3806;52.270;10.544;2023-06-10T00:59:49;17.70;90.40
7530;DHT22;3806;52.270;10.544;2023-06-10T01:02:15;17.60;91.00
7530;DHT22;3806;52.270;10.544;2023-06-10T01:04:40;17.60;91.70
7530;DHT22;3806;52.270;10.544;2023-06-10T01:07:24;17.50;92.20
7530;DHT22;3806;52.270;10.544;2023-06-10T01:15:23;17.30;94.00
7530;DHT22;3806;52.270;10.544;2023-06-10T01:18:02;17.30;94.60
7530;DHT22;3806;52.270;10.544;2023-06-10T01:20:29;17.30;94.90
7530;DHT22;3806;52.270;10.544;2023-06-10T01:22:55;17.20;95.40
7530;DHT22;3806;52.270;10.544;2023-06-10T01:25:22;17.20;95.70
7530;DHT22;3806;52.270;10.544;2023-06-10T01:27:54;17.20;96.00
7530;DHT22;3806;52.270;10.544;2023-06-10T01:30:26;17.20;96.40
7530;DHT22;3806;52.270;10.544;2023-06-10T01:32:55;17.10;96.60
7530;DHT22;3806;52.270;10.544;2023-06-10T01:35:24;17.00;97.00
7530;DHT22;3806;52.270;10.544;2023-06-10T01:37:53;17.00;97.30
7530;DHT22;3806;52.270;10.544;2023-06-10T01:40:20;16.90;98.00
7530;DHT22;3806;52.270;10.544;2023-06-10T01:42:45;16.80;98.30
7530;DHT22;3806;52.270;10.544;2023-06-10T01:45:11;16.70;98.60
7530;DHT22;3806;52.270;10.544;2023-06-10T01:47:36;16.70;99.00
7530;DHT22;3806;52.270;10.544;2023-06-10T01:50:02;16.60;99.30
7530;DHT22;3806;52.270;10.544;2023-06-10T01:52:28;16.60;99.70
7530;DHT22;3806;52.270;10.544;2023-06-10T01:54:53;16.40;99.90
7530;DHT22;3806;52.270;10.544;2023-06-10T01:57:19;16.50;99.90
7530;DHT22;3806;52.270;10.544;2023-06-10T01:59:44;16.50;99.90
7530;DHT22;3806;52.270;10.544;2023-06-10T02:02:11;16.40;99.90
7530;DHT22;3806;52.270;10.544;2023-06-10T02:04:36;16.40;99.90
7530;DHT22;3806;52.270;10.544;2023-06-10T02:07:02;16.40;99.90
7530;DHT22;3806;52.270;10.544;2023-06-10T02:09:30;16.30;99.90
7530;DHT22;3806;52.270;10.544;2023-06-10T02:11:55;16.30;99.90
7530;DHT22;3806;52.270;10.544;2023-06-10T02:14:21;16.20;99.90
7530;DHT22;3806;52.270;10.544;2023-06-10T02:16:46;16.20;99.90
7530;DHT22;3806;52.270;10.544;2023-06-10T02:19:13;16.20;99.90
7530;DHT22;3806;52.270;10.544;2023-06-10T02:21:39;16.20;99.90
7530;DHT22;3806;52.270;10.544;2023-06-10T02:24:05;16.20;99.90
7530;DHT22;3806;52.270;10.544;2023-06-10T02:26:31;16.20;99.90
7530;DHT22;3806;52.270;10.544;2023-06-10T02:28:57;16.10;99.90
7530;DHT22;3806;52.270;10.544;2023-06-10T02:31:22;16.10;99.90
7530;DHT22;3806;52.270;10.544;2023-06-10T02:33:49;16.10;99.90
7530;DHT22;3806;52.270;10.544;2023-06-10T02:36:15;16.00;99.90
7530;DHT22;3806;52.270;10.544;2023-06-10T02:38:41;16.00;99.90
7530;DHT22;3806;52.270;10.544;2023-06-10T02:41:07;16.00;99.90
7530;DHT22;3806;52.270;10.544;2023-06-10T02:43:32;16.00;99.90
7530;DHT22;3806;52.270;10.544;2023-06-10T02:45:57;16.00;99.90
7530;DHT22;3806;52.270;10.544;2023-06-10T02:48:27;16.00;99.90
7530;DHT22;3806;52.270;10.544;2023-06-10T02:50:53;16.00;99.90
7530;DHT22;3806;52.270;10.544;2023-06-10T02:53:18;15.90;99.90
7530;DHT22;3806;52.270;10.544;2023-06-10T02:55:44;15.90;99.90
7530;DHT22;3806;52.270;10.544;2023-06-10T02:58:09;15.90;99.90
7530;DHT22;3806;52.270;10.544;2023-06-10T03:00:35;15.90;99.90
7530;DHT22;3806;52.270;10.544;2023-06-10T03:03:02;15.90;99.90
7530;DHT22;3806;52.270;10.544;2023-06-10T03:05:29;15.90;99.90
7530;DHT22;3806;52.270;10.544;2023-06-10T03:07:55;15.90;99.90
7530;DHT22;3806;52.270;10.544;2023-06-10T03:10:20;15.90;99.90
7530;DHT22;3806;52.270;10.544;2023-06-10T03:12:46;15.90;99.90
7530;DHT22;3806;52.270;10.544;2023-06-10T03:15:11;15.80;99.90
7530;DHT22;3806;52.270;10.544;2023-06-10T03:17:37;15.70;99.90
7530;DHT22;3806;52.270;10.544;2023-06-10T03:20:03;15.70;99.90
7530;DHT22;3806;52.270;10.544;2023-06-10T03:22:35;15.70;99.90
7530;DHT22;3806;52.270;10.544;2023-06-10T03:25:01;15.70;99.90
7530;DHT22;3806;52.270;10.544;2023-06-10T03:27:26;15.70;99.90
7530;DHT22;3806;52.270;10.544;2023-06-10T03:29:52;15.70;99.90
7530;DHT22;3806;52.270;10.544;2023-06-10T03:32:17;15.60;99.90
7530;DHT22;3806;52.270;10.544;2023-06-10T03:34:43;15.60;99.90
7530;DHT22;3806;52.270;10.544;2023-06-10T03:37:10;15.70;99.90
7530;DHT22;3806;52.270;10.544;2023-06-10T03:39:36;15.70;99.90
7530;DHT22;3806;52.270;10.544;2023-06-10T03:42:01;15.70;99.90
7530;DHT22;3806;52.270;10.544;2023-06-10T03:44:27;15.60;99.90
7530;DHT22;3806;52.270;10.544;2023-06-10T03:46:53;15.60;99.90
7530;DHT22;3806;52.270;10.544;2023-06-10T03:49:19;15.60;99.90
7530;DHT22;3806;52.270;10.544;2023-06-10T03:51:45;15.70;99.90
7530;DHT22;3806;52.270;10.544;2023-06-10T03:54:10;15.70;99.90
7530;DHT22;3806;52.270;10.544;2023-06-10T03:56:36;15.80;99.90
7530;DHT22;3806;52.270;10.544;2023-06-10T03:59:01;15.80;99.90
7530;DHT22;3806;52.270;10.544;2023-06-10T04:01:29;15.80;99.90
7530;DHT22;3806;52.270;10.544;2023-06-10T04:03:54;15.80;99.90
7530;DHT22;3806;52.270;10.544;2023-06-10T04:06:20;15.90;99.90
7530;DHT22;3806;52.270;10.544;2023-06-10T04:08:48;15.90;99.90
7530;DHT22;3806;52.270;10.544;2023-06-10T04:11:14;15.90;99.90
7530;DHT22;3806;52.270;10.544;2023-06-10T04:13:39;16.00;99.90
7530;DHT22;3806;52.270;10.544;2023-06-10T04:16:05;16.10;99.90
7530;DHT22;3806;52.270;10.544;2023-06-10T04:18:30;16.20;99.90
7530;DHT22;3806;52.270;10.544;2023-06-10T04:20:56;16.20;99.90
7530;DHT22;3806;52.270;10.544;2023-06-10T04:23:22;16.40;99.90
7530;DHT22;3806;52.270;10.544;2023-06-10T04:25:47;16.50;99.90
7530;DHT22;3806;52.270;10.544;2023-06-10T04:28:13;16.70;99.90
7530;DHT22;3806;52.270;10.544;2023-06-10T04:30:39;16.90;99.90
7530;DHT22;3806;52.270;10.544;2023-06-10T04:33:04;17.10;99.90
7530;DHT22;3806;52.270;10.544;2023-06-10T04:35:31;17.20;99.90
7530;DHT22;3806;52.270;10.544;2023-06-10T04:37:59;17.30;99.90
7530;DHT22;3806;52.270;10.544;2023-06-10T04:40:25;17.30;99.90
7530;DHT22;3806;52.270;10.544;2023-06-10T04:42:51;17.30;99.90
7530;DHT22;3806;52.270;10.544;2023-06-10T04:45:18;17.20;99.90
7530;DHT22;3806;52.270;10.544;2023-06-10T04:47:44;17.20;99.90
7530;DHT22;3806;52.270;10.544;2023-06-10T04:50:12;17.10;99.90
7530;DHT22;3806;52.270;10.544;2023-06-10T04:52:38;17.10;99.90
7530;DHT22;3806;52.270;10.544;2023-06-10T04:55:07;17.20;99.90
7530;DHT22;3806;52.270;10.544;2023-06-10T04:57:32;17.60;99.90
7530;DHT22;3806;52.270;10.544;2023-06-10T04:59:58;18.10;99.90
7530;DHT22;3806;52.270;10.544;2023-06-10T05:02:23;18.60;99.30
7530;DHT22;3806;52.270;10.544;2023-06-10T05:04:49;18.80;98.10
7530;DHT22;3806;52.270;10.544;2023-06-10T05:07:14;18.60;97.40
7530;DHT22;3806;52.270;10.544;2023-06-10T05:09:40;18.40;97.50
7530;DHT22;3806;52.270;10.544;2023-06-10T05:12:06;18.30;97.80
7530;DHT22;3806;52.270;10.544;2023-06-10T05:14:32;18.20;97.80
7530;DHT22;3806;52.270;10.544;2023-06-10T05:16:57;18.00;98.10
7530;DHT22;3806;52.270;10.544;2023-06-10T05:19:23;17.70;98.20
7530;DHT22;3806;52.270;10.544;2023-06-10T05:21:49;17.50;98.80
7530;DHT22;3806;52.270;10.544;2023-06-10T05:24:14;17.20;99.20
7530;DHT22;3806;52.270;10.544;2023-06-10T05:26:40;17.10;99.90
7530;DHT22;3806;52.270;10.544;2023-06-10T05:29:07;17.00;99.90
7530;DHT22;3806;52.270;10.544;2023-06-10T05:31:33;16.90;99.90
7530;DHT22;3806;52.270;10.544;2023-06-10T05:33:58;17.00;99.90
7530;DHT22;3806;52.270;10.544;2023-06-10T05:36:24;17.20;99.90
7530;DHT22;3806;52.270;10.544;2023-06-10T05:38:52;17.40;99.90
7530;DHT22;3806;52.270;10.544;2023-06-10T05:41:18;17.60;99.90
7530;DHT22;3806;52.270;10.544;2023-06-10T05:43:43;17.80;99.90
7530;DHT22;3806;52.270;10.544;2023-06-10T05:46:09;18.20;99.90
7530;DHT22;3806;52.270;10.544;2023-06-10T05:48:36;18.40;99.10
7530;DHT22;3806;52.270;10.544;2023-06-10T05:51:02;18.50;98.70
7530;DHT22;3806;52.270;10.544;2023-06-10T05:53:27;18.60;98.70
7530;DHT22;3806;52.270;10.544;2023-06-10T05:55:53;19.10;98.60
7530;DHT22;3806;52.270;10.544;2023-06-10T05:58:22;20.20;97.00
7530;DHT22;3806;52.270;10.544;2023-06-10T06:00:48;21.10;95.10
7530;DHT22;3806;52.270;10.544;2023-06-10T06:03:14;22.30;92.60
7530;DHT22;3806;52.270;10.544;2023-06-10T06:05:40;23.50;88.80
7530;DHT22;3806;52.270;10.544;2023-06-10T06:08:05;24.70;81.70
7530;DHT22;3806;52.270;10.544;2023-06-10T06:10:31;25.90;75.60
7530;DHT22;3806;52.270;10.544;2023-06-10T06:12:57;26.90;69.10
7530;DHT22;3806;52.270;10.544;2023-06-10T06:15:23;27.80;63.10
7530;DHT22;3806;52.270;10.544;2023-06-10T06:17:48;28.40;59.00
7530;DHT22;3806;52.270;10.544;2023-06-10T06:20:14;29.00;56.50
7530;DHT22;3806;52.270;10.544;2023-06-10T06:22:39;29.40;53.40
7530;DHT22;3806;52.270;10.544;2023-06-10T06:25:05;29.30;52.00
7530;DHT22;3806;52.270;10.544;2023-06-10T06:27:31;28.80;51.70
7530;DHT22;3806;52.270;10.544;2023-06-10T06:29:56;28.40;52.60
7530;DHT22;3806;52.270;10.544;2023-06-10T06:32:22;27.90;52.70
7530;DHT22;3806;52.270;10.544;2023-06-10T06:34:50;27.70;53.10
7530;DHT22;3806;52.270;10.544;2023-06-10T06:37:22;27.20;53.20
7530;DHT22;3806;52.270;10.544;2023-06-10T06:39:50;26.80;54.10
7530;DHT22;3806;52.270;10.544;2023-06-10T06:42:16;26.50;55.00
7530;DHT22;3806;52.270;10.544;2023-06-10T06:44:47;26.10;55.90
7530;DHT22;3806;52.270;10.544;2023-06-10T06:47:13;25.70;56.90
7530;DHT22;3806;52.270;10.544;2023-06-10T06:49:39;25.30;58.20
7530;DHT22;3806;52.270;10.544;2023-06-10T06:52:06;25.20;59.30
7530;DHT22;3806;52.270;10.544;2023-06-10T06:54:31;25.00;59.70
7530;DHT22;3806;52.270;10.544;2023-06-10T06:56:57;24.80;60.20
7530;DHT22;3806;52.270;10.544;2023-06-10T06:59:23;24.60;61.20
7530;DHT22;3806;52.270;10.544;2023-06-10T07:01:51;24.60;62.70
7530;DHT22;3806;52.270;10.544;2023-06-10T07:04:16;24.70;63.60
7530;DHT22;3806;52.270;10.544;2023-06-10T07:06:44;24.60;62.50
7530;DHT22;3806;52.270;10.544;2023-06-10T07:09:09;24.50;62.60
7530;DHT22;3806;52.270;10.544;2023-06-10T07:11:35;24.40;63.60
7530;DHT22;3806;52.270;10.544;2023-06-10T07:14:01;24.40;64.20
7530;DHT22;3806;52.270;10.544;2023-06-10T07:16:27;24.40;64.40
7530;DHT22;3806;52.270;10.544;2023-06-10T07:18:53;24.50;64.90
7530;DHT22;3806;52.270;10.544;2023-06-10T07:21:19;24.60;64.70
7530;DHT22;3806;52.270;10.544;2023-06-10T07:23:45;24.70;64.40
7530;DHT22;3806;52.270;10.544;2023-06-10T07:26:12;24.50;64.30
7530;DHT22;3806;52.270;10.544;2023-06-10T07:28:41;24.20;65.70
7530;DHT22;3806;52.270;10.544;2023-06-10T07:31:08;24.10;67.00
7530;DHT22;3806;52.270;10.544;2023-06-10T07:33:34;24.00;67.70
7530;DHT22;3806;52.270;10.544;2023-06-10T07:36:00;24.00;68.40
7530;DHT22;3806;52.270;10.544;2023-06-10T07:38:26;23.90;68.20
7530;DHT22;3806;52.270;10.544;2023-06-10T07:40:52;23.90;69.00
7530;DHT22;3806;52.270;10.544;2023-06-10T07:43:17;23.90;70.10
7530;DHT22;3806;52.270;10.544;2023-06-10T07:45:43;24.00;69.80
7530;DHT22;3806;52.270;10.544;2023-06-10T07:48:09;24.00;69.50
7530;DHT22;3806;52.270;10.544;2023-06-10T07:50:35;23.80;69.60
7530;DHT22;3806;52.270;10.544;2023-06-10T07:53:01;23.70;69.90
7530;DHT22;3806;52.270;10.544;2023-06-10T07:55:27;23.60;71.00
7530;DHT22;3806;52.270;10.544;2023-06-10T07:57:53;23.60;71.30
7530;DHT22;3806;52.270;10.544;2023-06-10T08:00:19;23.50;71.80
7530;DHT22;3806;52.270;10.544;2023-06-10T08:02:44;23.50;72.70
7530;DHT22;3806;52.270;10.544;2023-06-10T08:05:10;23.40;73.10
7530;DHT22;3806;52.270;10.544;2023-06-10T08:07:35;23.50;73.30
7530;DHT22;3806;52.270;10.544;2023-06-10T08:10:02;23.50;73.50
7530;DHT22;3806;52.270;10.544;2023-06-10T08:12:30;23.60;74.10
7530;DHT22;3806;52.270;10.544;2023-06-10T08:14:55;23.70;74.40
7530;DHT22;3806;52.270;10.544;2023-06-10T08:17:21;23.70;74.20
7530;DHT22;3806;52.270;10.544;2023-06-10T08:19:47;23.80;74.30
7530;DHT22;3806;52.270;10.544;2023-06-10T08:22:12;24.00;74.50
7530;DHT22;3806;52.270;10.544;2023-06-10T08:24:38;24.10;74.30
7530;DHT22;3806;52.270;10.544;2023-06-10T08:27:03;24.20;73.50
7530;DHT22;3806;52.270;10.544;2023-06-10T08:29:29;24.20;73.60
7530;DHT22;3806;52.270;10.544;2023-06-10T08:31:56;24.20;73.90
7530;DHT22;3806;52.270;10.544;2023-06-10T08:34:22;24.40;74.10
7530;DHT22;3806;52.270;10.544;2023-06-10T08:36:47;24.70;73.70
7530;DHT22;3806;52.270;10.544;2023-06-10T08:39:13;25.00;72.60
7530;DHT22;3806;52.270;10.544;2023-06-10T08:41:43;25.20;71.70
7530;DHT22;3806;52.270;10.544;2023-06-10T08:44:15;25.30;70.80
7530;DHT22;3806;52.270;10.544;2023-06-10T08:46:45;25.40;70.50
7530;DHT22;3806;52.270;10.544;2023-06-10T08:49:10;25.60;70.40
7530;DHT22;3806;52.270;10.544;2023-06-10T08:51:41;25.70;69.60
7530;DHT22;3806;52.270;10.544;2023-06-10T08:54:17;25.70;69.90
7530;DHT22;3806;52.270;10.544;2023-06-10T08:56:44;25.90;69.70
7530;DHT22;3806;52.270;10.544;2023-06-10T08:59:13;26.00;69.10
7530;DHT22;3806;52.270;10.544;2023-06-10T09:01:44;26.10;68.70
7530;DHT22;3806;52.270;10.544;2023-06-10T09:04:10;26.10;69.20
7530;DHT22;3806;52.270;10.544;2023-06-10T09:06:36;26.10;68.50
7530;DHT22;3806;52.270;10.544;2023-06-10T09:09:05;26.10;69.30
7530;DHT22;3806;52.270;10.544;2023-06-10T09:11:31;26.10;69.10
7530;DHT22;3806;52.270;10.544;2023-06-10T09:13:57;26.10;68.20
7530;DHT22;3806;52.270;10.544;2023-06-10T09:16:26;26.10;69.10
7530;DHT22;3806;52.270;10.544;2023-06-10T09:18:51;26.10;69.20
7530;DHT22;3806;52.270;10.544;2023-06-10T09:21:22;26.10;69.40
7530;DHT22;3806;52.270;10.544;2023-06-10T09:23:48;26.10;69.10
7530;DHT22;3806;52.270;10.544;2023-06-10T09:26:13;25.90;68.90
7530;DHT22;3806;52.270;10.544;2023-06-10T09:28:39;26.00;69.20
7530;DHT22;3806;52.270;10.544;2023-06-10T09:31:07;26.00;69.70
7530;DHT22;3806;52.270;10.544;2023-06-10T09:33:37;26.10;69.50
7530;DHT22;3806;52.270;10.544;2023-06-10T09:36:03;26.10;69.60
7530;DHT22;3806;52.270;10.544;2023-06-10T09:38:31;26.20;69.70
7530;DHT22;3806;52.270;10.544;2023-06-10T09:40:58;26.30;69.30
7530;DHT22;3806;52.270;10.544;2023-06-10T09:43:45;26.40;68.30
7530;DHT22;3806;52.270;10.544;2023-06-10T09:46:16;26.40;68.20
7530;DHT22;3806;52.270;10.544;2023-06-10T09:48:44;26.60;68.50
7530;DHT22;3806;52.270;10.544;2023-06-10T09:51:12;26.70;68.30
7530;DHT22;3806;52.270;10.544;2023-06-10T09:53:38;26.90;68.20
7530;DHT22;3806;52.270;10.544;2023-06-10T09:56:04;27.00;67.00
7530;DHT22;3806;52.270;10.544;2023-06-10T09:58:39;27.20;66.00
7530;DHT22;3806;52.270;10.544;2023-06-10T10:01:12;27.10;66.20
7530;DHT22;3806;52.270;10.544;2023-06-10T10:03:49;27.20;66.20
7530;DHT22;3806;52.270;10.544;2023-06-10T10:06:17;27.10;65.10
7530;DHT22;3806;52.270;10.544;2023-06-10T10:08:43;27.10;65.30
7530;DHT22;3806;52.270;10.544;2023-06-10T10:11:10;27.00;65.40
7530;DHT22;3806;52.270;10.544;2023-06-10T10:13:36;27.00;66.00
7530;DHT22;3806;52.270;10.544;2023-06-10T10:16:16;27.30;65.20
7530;DHT22;3806;52.270;10.544;2023-06-10T10:18:52;27.40;64.30
7530;DHT22;3806;52.270;10.544;2023-06-10T10:21:26;27.50;63.70
7530;DHT22;3806;52.270;10.544;2023-06-10T10:24:03;27.70;63.20
7530;DHT22;3806;52.270;10.544;2023-06-10T10:26:31;27.70;62.50
7530;DHT22;3806;52.270;10.544;2023-06-10T10:31:50;27.90;62.40
7530;DHT22;3806;52.270;10.544;2023-06-10T10:34:26;28.10;62.50
7530;DHT22;3806;52.270;10.544;2023-06-10T10:36:54;28.10;62.00
7530;DHT22;3806;52.270;10.544;2023-06-10T10:39:21;28.20;61.60
7530;DHT22;3806;52.270;10.544;2023-06-10T10:41:49;28.30;61.70
7530;DHT22;3806;52.270;10.544;2023-06-10T10:44:15;28.50;61.40
7530;DHT22;3806;52.270;10.544;2023-06-10T10:46:49;28.70;60.40
7530;DHT22;3806;52.270;10.544;2023-06-10T10:49:16;28.80;59.70
7530;DHT22;3806;52.270;10.544;2023-06-10T10:52:00;29.00;59.30
7530;DHT22;3806;52.270;10.544;2023-06-10T10:54:29;29.10;58.20
7530;DHT22;3806;52.270;10.544;2023-06-10T10:59:58;29.20;58.50
7530;DHT22;3806;52.270;10.544;2023-06-10T11:04:58;29.20;57.50
7530;DHT22;3806;52.270;10.544;2023-06-10T11:07:25;29.20;57.30
7530;DHT22;3806;52.270;10.544;2023-06-10T11:09:58;29.20;56.50
7530;DHT22;3806;52.270;10.544;2023-06-10T11:12:41;29.20;56.70
7530;DHT22;3806;52.270;10.544;2023-06-10T11:15:07;29.10;55.80
7530;DHT22;3806;52.270;10.544;2023-06-10T11:17:32;29.10;56.00
7530;DHT22;3806;52.270;10.544;2023-06-10T11:20:01;29.10;56.50
7530;DHT22;3806;52.270;10.544;2023-06-10T11:22:27;29.00;56.20
7530;DHT22;3806;52.270;10.544;2023-06-10T11:24:53;29.00;57.10
7530;DHT22;3806;52.270;10.544;2023-06-10T11:27:23;29.00;56.20
7530;DHT22;3806;52.270;10.544;2023-06-10T11:32:22;28.80;56.40
7530;DHT22;3806;52.270;10.544;2023-06-10T11:34:52;28.80;56.80
7530;DHT22;3806;52.270;10.544;2023-06-10T11:37:18;28.80;56.60
7530;DHT22;3806;52.270;10.544;2023-06-10T11:39:44;28.90;56.10
7530;DHT22;3806;52.270;10.544;2023-06-10T11:42:10;28.80;56.20
7530;DHT22;3806;52.270;10.544;2023-06-10T11:44:36;28.80;56.80
7530;DHT22;3806;52.270;10.544;2023-06-10T11:47:03;28.80;56.90
7530;DHT22;3806;52.270;10.544;2023-06-10T11:49:29;28.90;56.70
7530;DHT22;3806;52.270;10.544;2023-06-10T11:51:54;28.90;56.30
7530;DHT22;3806;52.270;10.544;2023-06-10T11:54:21;28.90;56.20
7530;DHT22;3806;52.270;10.544;2023-06-10T11:56:47;29.00;56.20
7530;DHT22;3806;52.270;10.544;2023-06-10T11:59:13;29.00;56.40
7530;DHT22;3806;52.270;10.544;2023-06-10T12:01:44;29.00;56.00
7530;DHT22;3806;52.270;10.544;2023-06-10T12:04:14;29.00;55.60
7530;DHT22;3806;52.270;10.544;2023-06-10T12:06:44;28.90;55.20
7530;DHT22;3806;52.270;10.544;2023-06-10T12:11:40;29.00;55.60
7530;DHT22;3806;52.270;10.544;2023-06-10T12:14:07;29.00;55.10
7530;DHT22;3806;52.270;10.544;2023-06-10T12:16:33;28.90;55.30
7530;DHT22;3806;52.270;10.544;2023-06-10T12:19:02;28.90;55.20
7530;DHT22;3806;52.270;10.544;2023-06-10T12:21:28;28.90;55.20
7530;DHT22;3806;52.270;10.544;2023-06-10T12:24:05;28.90;55.30
7530;DHT22;3806;52.270;10.544;2023-06-10T12:26:42;28.90;55.70
7530;DHT22;3806;52.270;10.544;2023-06-10T12:29:28;28.80;55.40
7530;DHT22;3806;52.270;10.544;2023-06-10T12:32:02;28.60;55.50
7530;DHT22;3806;52.270;10.544;2023-06-10T12:34:37;28.60;55.60
7530;DHT22;3806;52.270;10.544;2023-06-10T12:37:05;28.50;55.60
7530;DHT22;3806;52.270;10.544;2023-06-10T12:39:32;28.40;55.70
7530;DHT22;3806;52.270;10.544;2023-06-10T12:41:59;28.50;56.10
7530;DHT22;3806;52.270;10.544;2023-06-10T12:44:34;28.60;55.60
7530;DHT22;3806;52.270;10.544;2023-06-10T12:47:01;28.60;55.20
7530;DHT22;3806;52.270;10.544;2023-06-10T12:49:33;28.70;55.30
7530;DHT22;3806;52.270;10.544;2023-06-10T12:51:58;28.70;55.20
7530;DHT22;3806;52.270;10.544;2023-06-10T12:54:24;28.70;54.80
7530;DHT22;3806;52.270;10.544;2023-06-10T12:56:49;28.80;54.40
7530;DHT22;3806;52.270;10.544;2023-06-10T12:59:15;28.80;54.00
7530;DHT22;3806;52.270;10.544;2023-06-10T13:01:41;28.80;53.70
7530;DHT22;3806;52.270;10.544;2023-06-10T13:04:08;28.90;53.80
7530;DHT22;3806;52.270;10.544;2023-06-10T13:06:33;28.90;53.80
7530;DHT22;3806;52.270;10.544;2023-06-10T13:09:02;29.00;54.00
7530;DHT22;3806;52.270;10.544;2023-06-10T13:11:29;29.00;54.10
7530;DHT22;3806;52.270;10.544;2023-06-10T13:13:56;29.00;53.80
7530;DHT22;3806;52.270;10.544;2023-06-10T13:16:24;29.00;54.00
7530;DHT22;3806;52.270;10.544;2023-06-10T13:18:53;29.00;53.50
7530;DHT22;3806;52.270;10.544;2023-06-10T13:21:19;29.00;53.80
7530;DHT22;3806;52.270;10.544;2023-06-10T13:23:45;29.00;54.00
7530;DHT22;3806;52.270;10.544;2023-06-10T13:26:14;29.10;54.20
7530;DHT22;3806;52.270;10.544;2023-06-10T13:28:45;29.10;54.00
7530;DHT22;3806;52.270;10.544;2023-06-10T13:31:17;29.10;53.40
7530;DHT22;3806;52.270;10.544;2023-06-10T13:33:44;29.20;53.10
7530;DHT22;3806;52.270;10.544;2023-06-10T13:36:10;29.20;52.40
7530;DHT22;3806;52.270;10.544;2023-06-10T13:38:36;29.20;51.80
7530;DHT22;3806;52.270;10.544;2023-06-10T13:41:01;29.10;51.10
7530;DHT22;3806;52.270;10.544;2023-06-10T13:43:27;29.00;51.60
7530;DHT22;3806;52.270;10.544;2023-06-10T13:45:52;29.00;52.90
7530;DHT22;3806;52.270;10.544;2023-06-10T13:48:18;29.00;53.90
7530;DHT22;3806;52.270;10.544;2023-06-10T13:50:43;29.00;52.60
7530;DHT22;3806;52.270;10.544;2023-06-10T13:53:11;29.10;51.80
7530;DHT22;3806;52.270;10.544;2023-06-10T13:55:36;29.10;51.50
7530;DHT22;3806;52.270;10.544;2023-06-10T13:58:02;29.10;52.20
7530;DHT22;3806;52.270;10.544;2023-06-10T14:00:28;29.20;52.60
7530;DHT22;3806;52.270;10.544;2023-06-10T14:02:54;29.20;53.00
7530;DHT22;3806;52.270;10.544;2023-06-10T14:05:19;29.20;53.20
7530;DHT22;3806;52.270;10.544;2023-06-10T14:07:45;29.20;52.90
7530;DHT22;3806;52.270;10.544;2023-06-10T14:10:10;29.30;52.50
7530;DHT22;3806;52.270;10.544;2023-06-10T14:12:36;29.30;52.30
7530;DHT22;3806;52.270;10.544;2023-06-10T14:15:02;29.30;50.90
7530;DHT22;3806;52.270;10.544;2023-06-10T14:17:28;29.20;50.40
7530;DHT22;3806;52.270;10.544;2023-06-10T14:19:53;29.10;50.90
7530;DHT22;3806;52.270;10.544;2023-06-10T14:22:19;29.00;50.80
7530;DHT22;3806;52.270;10.544;2023-06-10T14:24:44;29.10;51.00
7530;DHT22;3806;52.270;10.544;2023-06-10T14:27:10;29.10;50.80
7530;DHT22;3806;52.270;10.544;2023-06-10T14:29:35;29.10;50.90
7530;DHT22;3806;52.270;10.544;2023-06-10T14:32:01;29.10;50.80
7530;DHT22;3806;52.270;10.544;2023-06-10T14:34:26;29.20;50.60
7530;DHT22;3806;52.270;10.544;2023-06-10T14:36:55;29.10;52.30
7530;DHT22;3806;52.270;10.544;2023-06-10T14:39:20;29.00;52.00
7530;DHT22;3806;52.270;10.544;2023-06-10T14:41:46;28.90;52.00
7530;DHT22;3806;52.270;10.544;2023-06-10T14:44:11;28.90;53.10
7530;DHT22;3806;52.270;10.544;2023-06-10T14:46:37;28.70;51.20
7530;DHT22;3806;52.270;10.544;2023-06-10T14:49:02;28.70;51.10
7530;DHT22;3806;52.270;10.544;2023-06-10T14:51:28;28.70;49.20
7530;DHT22;3806;52.270;10.544;2023-06-10T14:53:53;28.70;49.40
7530;DHT22;3806;52.270;10.544;2023-06-10T14:56:19;28.70;49.70
7530;DHT22;3806;52.270;10.544;2023-06-10T14:58:44;28.80;50.00
7530;DHT22;3806;52.270;10.544;2023-06-10T15:01:10;28.80;50.10
7530;DHT22;3806;52.270;10.544;2023-06-10T15:03:35;28.90;50.20
7530;DHT22;3806;52.270;10.544;2023-06-10T15:06:01;29.00;50.20
7530;DHT22;3806;52.270;10.544;2023-06-10T15:08:26;29.00;49.90
7530;DHT22;3806;52.270;10.544;2023-06-10T15:10:53;29.00;48.80
7530;DHT22;3806;52.270;10.544;2023-06-10T15:13:20;29.10;48.50
7530;DHT22;3806;52.270;10.544;2023-06-10T15:15:46;29.00;47.80
7530;DHT22;3806;52.270;10.544;2023-06-10T15:18:12;29.00;48.00
7530;DHT22;3806;52.270;10.544;2023-06-10T15:20:38;29.00;48.10
7530;DHT22;3806;52.270;10.544;2023-06-10T15:23:04;29.00;48.20
7530;DHT22;3806;52.270;10.544;2023-06-10T15:25:30;28.90;48.60
7530;DHT22;3806;52.270;10.544;2023-06-10T15:27:56;28.80;48.80
7530;DHT22;3806;52.270;10.544;2023-06-10T15:30:22;28.80;50.10
7530;DHT22;3806;52.270;10.544;2023-06-10T15:32:47;28.80;51.10
7530;DHT22;3806;52.270;10.544;2023-06-10T15:35:13;28.80;50.10
7530;DHT22;3806;52.270;10.544;2023-06-10T15:37:38;28.80;49.70
7530;DHT22;3806;52.270;10.544;2023-06-10T15:40:04;28.80;49.40
7530;DHT22;3806;52.270;10.544;2023-06-10T15:42:30;28.90;49.10
7530;DHT22;3806;52.270;10.544;2023-06-10T15:44:56;28.90;49.10
7530;DHT22;3806;52.270;10.544;2023-06-10T15:47:22;28.90;47.70
7530;DHT22;3806;52.270;10.544;2023-06-10T15:49:48;28.80;46.40
7530;DHT22;3806;52.270;10.544;2023-06-10T15:52:13;28.40;45.80
7530;DHT22;3806;52.270;10.544;2023-06-10T15:54:39;28.10;45.70
7530;DHT22;3806;52.270;10.544;2023-06-10T15:57:05;27.70;46.00
7530;DHT22;3806;52.270;10.544;2023-06-10T15:59:32;27.30;46.80
7530;DHT22;3806;52.270;10.544;2023-06-10T16:01:58;26.90;47.90